createdAt,value
2022-09-03T00:08:04.226Z,23.30
2022-09-03T00:18:11.143Z,23.80
2022-09-03T00:28:20.726Z,23.90
2022-09-03T00:38:24.635Z,23.80
2022-09-03T00:48:35.318Z,23.70
2022-09-03T00:59:03.509Z,23.40
2022-09-03T01:09:24.300Z,23.40
2022-09-03T01:19:53.910Z,23.20
2022-09-03T01:30:06.071Z,23.40
2022-09-03T01:40:23.659Z,23.70
2022-09-03T01:50:38.916Z,23.80
2022-09-03T02:00:47.872Z,23.70
2022-09-03T02:10:55.116Z,23.30
2022-09-03T02:21:00.527Z,23.10
2022-09-03T02:31:07.077Z,23.20
2022-09-03T02:41:14.436Z,22.80
2022-09-03T02:51:19.607Z,22.50
2022-09-03T03:01:24.341Z,22.30
2022-09-03T03:11:29.476Z,22.20
2022-09-03T03:21:33.464Z,22.30
2022-09-03T03:31:38.742Z,22.90
2022-09-03T03:41:42.425Z,23.40
2022-09-03T03:51:47.543Z,23.70
2022-09-03T04:01:51.579Z,23.90
2022-09-03T04:11:58.120Z,24.20
2022-09-03T04:22:01.983Z,24.30
2022-09-03T04:32:24.726Z,24.20
2022-09-03T04:42:29.471Z,24.20
2022-09-03T04:52:34.704Z,24.20
2022-09-03T05:02:38.593Z,24.30
2022-09-03T05:12:44.261Z,24.10
2022-09-03T05:22:48.108Z,24.20
2022-09-03T05:32:53.706Z,23.90
2022-09-03T05:43:00.051Z,23.50
2022-09-03T05:53:05.142Z,23.40
2022-09-03T06:03:09.009Z,23.50
2022-09-03T06:13:14.152Z,23.40
2022-09-03T06:23:18.441Z,23.50
2022-09-03T06:33:25.451Z,23.90
2022-09-03T06:43:29.632Z,23.90
2022-09-03T06:53:36.193Z,24.00
2022-09-03T07:03:41.501Z,25.10
2022-09-03T07:13:48.587Z,25.50
2022-09-03T07:23:53.625Z,25.80
2022-09-03T07:33:59.072Z,26.20
2022-09-03T07:44:05.876Z,26.40
2022-09-03T07:54:12.668Z,26.60
2022-09-03T08:04:16.410Z,26.80
2022-09-03T08:14:22.359Z,27.00
2022-09-03T08:24:26.755Z,27.60
2022-09-03T08:34:32.296Z,27.70
2022-09-03T08:44:42.332Z,27.90
2022-09-03T08:54:49.950Z,27.70
2022-09-03T09:05:06.063Z,28.00
2022-09-03T09:15:15.214Z,29.10
2022-09-03T09:25:23.596Z,28.50
2022-09-03T09:35:29.054Z,28.70
2022-09-03T09:45:34.453Z,28.60
2022-09-03T09:55:50.818Z,28.40
2022-09-03T10:06:24.156Z,28.20
2022-09-03T10:16:35.224Z,28.30
2022-09-03T10:26:40.148Z,29.30
2022-09-03T10:36:55.500Z,29.40
2022-09-03T10:47:08.244Z,29.70
2022-09-03T10:57:23.927Z,29.90
2022-09-03T11:07:35.288Z,29.00
2022-09-03T11:17:43.476Z,29.80
2022-09-03T11:27:58.098Z,29.90
2022-09-03T11:38:06.082Z,29.40
2022-09-03T11:48:20.274Z,30.00
2022-09-03T11:58:28.526Z,28.70
2022-09-03T12:08:55.299Z,28.50
2022-09-03T12:19:06.389Z,30.40
2022-09-03T12:29:28.043Z,32.10
2022-09-03T12:50:00.031Z,33.20
2022-09-03T13:00:09.877Z,31.80
2022-09-03T13:10:26.731Z,32.40
2022-09-03T13:20:39.526Z,31.50
2022-09-03T13:30:55.627Z,31.70
2022-09-03T13:41:11.071Z,32.00
2022-09-03T13:51:20.976Z,32.60
2022-09-03T14:01:45.238Z,32.80
2022-09-03T14:11:58.387Z,33.50
2022-09-03T14:22:10.192Z,34.10
2022-09-03T14:32:27.853Z,33.70
2022-09-03T14:42:57.396Z,33.90
2022-09-03T14:53:22.343Z,32.60
2022-09-03T15:04:04.144Z,30.50
2022-09-03T15:14:16.124Z,28.70
2022-09-03T15:24:31.395Z,28.40
2022-09-03T15:34:54.394Z,27.80
2022-09-03T15:45:09.381Z,27.40
2022-09-03T15:55:16.839Z,27.20
2022-09-03T16:05:29.198Z,27.10
2022-09-03T16:15:39.743Z,26.80
2022-09-03T16:25:53.577Z,26.80
2022-09-03T16:36:05.011Z,26.80
2022-09-03T16:46:21.121Z,26.60
2022-09-03T16:56:39.862Z,26.60
2022-09-03T17:06:54.334Z,26.80
2022-09-03T17:17:06.764Z,26.60
2022-09-03T17:27:31.325Z,26.60
2022-09-03T17:37:46.621Z,26.60
2022-09-03T17:48:18.620Z,26.40
2022-09-03T17:58:30.594Z,26.40
2022-09-03T18:08:45.262Z,26.20
2022-09-03T18:18:52.925Z,26.10
2022-09-03T18:29:22.408Z,26.00
2022-09-03T18:39:47.694Z,26.10
2022-09-03T18:50:17.154Z,26.20
2022-09-03T19:00:38.607Z,26.20
2022-09-03T19:11:07.634Z,26.00
2022-09-03T19:21:39.183Z,26.10
2022-09-03T19:32:05.986Z,26.20
2022-09-03T19:42:37.514Z,25.90
2022-09-03T19:53:06.504Z,26.00
2022-09-03T20:03:30.525Z,25.80
2022-09-03T20:13:54.343Z,25.60
2022-09-03T20:24:05.988Z,25.70
2022-09-03T20:34:24.115Z,25.50
2022-09-03T20:44:53.954Z,25.20
2022-09-03T20:55:09.309Z,25.10
2022-09-03T21:05:18.637Z,24.90
2022-09-03T21:15:33.382Z,24.70
2022-09-03T21:25:40.614Z,24.50
2022-09-03T21:35:53.461Z,24.50
2022-09-03T21:46:05.131Z,24.50
2022-09-03T21:56:38.620Z,24.50
2022-09-03T22:06:52.170Z,24.50
2022-09-03T22:17:05.640Z,24.50
2022-09-03T22:27:16.026Z,24.60
2022-09-03T22:37:33.010Z,24.50
2022-09-03T22:47:44.381Z,24.40
2022-09-03T22:58:00.826Z,24.30
2022-09-03T23:08:09.902Z,24.30
2022-09-03T23:18:19.837Z,24.20
2022-09-03T23:28:28.908Z,24.00
2022-09-03T23:38:45.461Z,23.70
2022-09-03T23:49:07.106Z,23.60
2022-09-03T23:59:19.155Z,23.30
